Time;durP1;ratioP1;P1;durP2;ratioP2;P2;SDS_P1;SDS_P2;PMS_P1;PMS_P2;Temp;Humidity;BMP_temperature;BMP_pressure;BME280_temperature;BME280_humidity;BME280_pressure;Samples;Min_cycle;Max_cycle;Signal;HPM_P1;HPM_P2
2022/01/03 00:01:22;;;;;;;7.78;2.15;;;;;;;10.06;82.70;99943.25;5013311;28;20073;-78
2022/01/03 00:03:48;;;;;;;5.68;2.13;;;;;;;10.01;83.20;99944.19;5012102;28;20172;-78
2022/01/03 00:06:14;;;;;;;7.35;2.10;;;;;;;9.95;83.90;99924.03;5011945;28;20171;-78
2022/01/03 00:08:42;;;;;;;7.15;3.10;;;;;;;9.90;85.39;99925.84;5013562;28;20117;-78
2022/01/03 00:11:11;;;;;;;4.40;2.20;;;;;;;9.93;84.59;99917.03;5013237;28;20038;-78
2022/01/03 00:13:40;;;;;;;5.93;2.15;;;;;;;9.91;85.64;99911.81;5013035;28;20066;-79
2022/01/03 00:16:05;;;;;;;5.85;2.67;;;;;;;9.91;85.58;99906.53;5013667;28;20037;-78
2022/01/03 00:18:31;;;;;;;5.28;2.17;;;;;;;9.91;85.52;99900.41;5013577;28;20053;-78
2022/01/03 00:20:59;;;;;;;5.85;2.45;;;;;;;9.95;85.64;99899.44;5013396;28;20045;-78
2022/01/03 00:23:32;;;;;;;5.57;2.45;;;;;;;9.97;85.76;99898.53;5013497;28;20053;-78
2022/01/03 00:26:00;;;;;;;6.95;2.05;;;;;;;10.00;86.29;99894.97;5012328;28;20042;-78
2022/01/03 00:28:45;;;;;;;7.25;2.72;;;;;;;10.03;85.85;99887.03;5020555;28;20033;-78
2022/01/03 00:31:12;;;;;;;5.95;2.42;;;;;;;9.99;85.47;99870.41;5017430;28;20042;-78
2022/01/03 00:33:38;;;;;;;6.05;2.78;;;;;;;10.00;85.94;99864.22;5020724;28;20037;-78
2022/01/03 00:36:04;;;;;;;6.13;2.50;;;;;;;10.02;85.59;99862.44;5013546;28;20034;-78
2022/01/03 00:38:32;;;;;;;4.85;2.58;;;;;;;10.03;85.27;99864.19;5009686;28;20041;-78
2022/01/03 00:41:01;;;;;;;6.57;2.80;;;;;;;10.02;85.53;99857.16;5020274;28;20033;-78
2022/01/03 00:43:27;;;;;;;7.28;3.05;;;;;;;10.05;85.44;99850.97;5009625;28;20042;-78
2022/01/03 00:45:54;;;;;;;5.53;2.60;;;;;;;10.11;84.46;99845.59;5020518;28;20508;-78
2022/01/03 00:48:20;;;;;;;6.95;2.53;;;;;;;10.17;83.91;99845.53;5013840;28;20038;-78
2022/01/03 00:50:46;;;;;;;5.70;2.40;;;;;;;10.21;83.25;99841.06;5020509;28;20049;-78
2022/01/03 00:53:12;;;;;;;6.22;2.58;;;;;;;10.28;82.08;99843.63;5013760;28;20120;-78
2022/01/03 00:55:55;;;;;;;6.82;2.47;;;;;;;10.45;81.47;99845.09;4999261;28;20128;-78
2022/01/03 00:58:24;;;;;;;6.03;2.45;;;;;;;10.49;81.78;99857.34;5023207;28;20046;-78
2022/01/03 01:00:53;;;;;;;6.55;2.28;;;;;;;10.49;81.77;99852.94;5012688;28;20034;-78
2022/01/03 01:03:27;;;;;;;5.75;2.50;;;;;;;10.40;82.50;99858.38;5012214;28;20030;-78
2022/01/03 01:05:55;;;;;;;6.63;2.30;;;;;;;10.38;82.41;99854.91;5013667;28;20077;-78
2022/01/03 01:08:23;;;;;;;5.97;2.00;;;;;;;10.37;83.34;99861.03;5014076;28;20033;-78
2022/01/03 01:10:52;;;;;;;4.95;1.80;;;;;;;10.26;84.99;99862.97;5014989;28;20030;-78
2022/01/03 01:13:20;;;;;;;8.13;2.03;;;;;;;10.18;85.77;99838.47;5023967;28;20089;-79
2022/01/03 01:15:46;;;;;;;7.53;2.28;;;;;;;10.06;86.36;99831.59;5017321;28;20037;-79
2022/01/03 01:18:13;;;;;;;11.35;2.38;;;;;;;9.99;86.47;99815.03;5016805;28;20397;-80
2022/01/03 01:20:39;;;;;;;7.22;2.15;;;;;;;10.04;85.43;99815.84;5016297;28;20037;-79
2022/01/03 01:23:09;;;;;;;4.80;1.80;;;;;;;10.08;85.36;99822.78;5016313;28;20117;-79
2022/01/03 01:28:08;;;;;;;5.03;1.52;;;;;;;10.02;84.25;99814.97;5025206;28;20042;-79
2022/01/03 01:30:34;;;;;;;2.25;1.00;;;;;;;10.14;83.60;99813.94;5014690;28;20026;-78
2022/01/03 01:33:02;;;;;;;3.72;1.05;;;;;;;10.18;82.67;99806.84;5022595;28;20044;-79
2022/01/03 01:35:55;;;;;;;8.10;1.60;;;;;;;10.16;81.97;99806.84;5013867;28;20450;-79
2022/01/03 01:38:32;;;;;;;4.38;1.05;;;;;;;10.06;80.42;99802.59;5012080;28;20046;-79
2022/01/03 01:41:01;;;;;;;4.07;1.00;;;;;;;10.07;80.12;99828.97;5015159;28;20033;-78
2022/01/03 01:43:36;;;;;;;5.00;1.23;;;;;;;10.07;79.00;99822.81;5018036;28;20080;-79
2022/01/03 01:46:09;;;;;;;2.78;0.77;;;;;;;9.99;79.02;99828.22;5017889;28;20528;-80
2022/01/03 01:48:37;;;;;;;2.78;0.80;;;;;;;10.00;79.49;99837.84;5017958;28;20119;-79
2022/01/03 01:51:09;;;;;;;1.33;0.60;;;;;;;9.90;78.69;99830.97;5018205;28;20037;-79
2022/01/03 01:53:42;;;;;;;1.90;0.57;;;;;;;9.94;77.54;99845.00;5020059;28;20550;-79
2022/01/03 01:56:15;;;;;;;1.35;0.63;;;;;;;9.96;78.76;99846.72;5023857;28;20042;-78
2022/01/03 01:59:18;;;;;;;1.40;0.35;;;;;;;9.90;78.20;99869.66;5016282;28;20034;-78
2022/01/03 02:01:50;;;;;;;1.70;0.50;;;;;;;9.85;79.20;99853.88;5033905;28;20049;-79
2022/01/03 02:04:23;;;;;;;1.48;0.50;;;;;;;9.84;79.23;99844.25;5020755;28;20428;-79
2022/01/03 02:06:48;;;;;;;1.20;0.50;;;;;;;9.83;78.67;99846.03;5020707;28;20053;-79
2022/01/03 02:09:20;;;;;;;1.50;0.40;;;;;;;9.75;78.78;99845.25;5020951;28;20029;-79
2022/01/03 02:11:54;;;;;;;1.10;0.30;;;;;;;9.72;78.69;99832.13;5021071;28;20484;-79
2022/01/03 02:14:26;;;;;;;2.60;0.40;;;;;;;9.64;78.59;99855.03;5012698;28;20026;-79
2022/01/03 02:16:54;;;;;;;0.38;0.20;;;;;;;9.57;77.92;99859.53;5034596;28;20102;-79
2022/01/03 02:19:21;;;;;;;2.85;0.20;;;;;;;9.54;77.79;99864.00;5029048;28;20029;-79
2022/01/03 02:21:48;;;;;;;1.85;0.43;;;;;;;9.50;77.93;99867.53;5017789;28;20038;-79
2022/01/03 02:24:17;;;;;;;1.25;0.30;;;;;;;9.42;77.82;99873.75;5013677;28;20137;-79
2022/01/03 02:26:43;;;;;;;2.35;0.40;;;;;;;9.39;77.87;99860.63;5018901;28;20076;-79
2022/01/03 02:29:08;;;;;;;0.90;0.22;;;;;;;9.37;78.39;99856.28;5018344;28;20436;-79
2022/01/03 02:31:35;;;;;;;1.80;0.22;;;;;;;9.50;78.04;99859.63;5018424;28;20113;-79
2022/01/03 02:34:01;;;;;;;0.82;0.10;;;;;;;9.47;77.58;99871.09;5018329;28;20045;-79
2022/01/03 02:36:30;;;;;;;1.30;0.38;;;;;;;9.47;77.94;99872.84;5017736;28;20523;-79
2022/01/03 02:38:56;;;;;;;2.35;0.30;;;;;;;9.26;77.40;99855.53;5018015;28;20044;-78
2022/01/03 02:41:22;;;;;;;0.52;0.10;;;;;;;9.20;78.56;99860.00;5018019;28;20057;-79
2022/01/03 02:43:51;;;;;;;1.17;0.20;;;;;;;9.09;79.04;99874.13;5017813;28;20044;-78
2022/01/03 02:46:17;;;;;;;1.33;0.30;;;;;;;9.02;79.39;99857.56;5018837;28;20044;-79
2022/01/03 02:48:43;;;;;;;1.67;0.20;;;;;;;8.99;79.27;99855.81;5017414;28;20062;-79
2022/01/03 02:51:10;;;;;;;0.93;0.20;;;;;;;8.92;79.81;99856.78;5016608;28;20038;-79
2022/01/03 02:53:37;;;;;;;1.90;0.30;;;;;;;8.77;80.64;99855.16;5016294;28;20053;-79
2022/01/03 02:56:02;;;;;;;1.25;0.40;;;;;;;8.72;80.66;99848.19;5017745;28;20049;-78
2022/01/03 02:58:28;;;;;;;1.02;0.20;;;;;;;8.71;80.49;99854.34;5016977;28;20030;-78
2022/01/03 03:00:53;;;;;;;0.08;0.08;;;;;;;8.70;80.75;99852.63;5024364;28;20025;-79
2022/01/03 03:03:38;;;;;;;1.75;0.20;;;;;;;8.59;80.97;99860.59;5016160;28;20037;-78
2022/01/03 03:06:03;;;;;;;1.50;0.40;;;;;;;8.51;81.53;99858.06;5024536;28;20033;-79
2022/01/03 03:08:31;;;;;;;0.90;0.17;;;;;;;8.52;81.58;99853.66;5016090;28;20116;-79
2022/01/03 03:10:56;;;;;;;1.05;0.25;;;;;;;8.55;81.65;99869.41;5023563;28;20128;-79
2022/01/03 03:13:22;;;;;;;0.32;0.13;;;;;;;8.53;81.30;99872.03;5015105;28;20511;-79
2022/01/03 03:15:48;;;;;;;1.88;0.30;;;;;;;8.53;81.80;99866.78;5015476;28;20038;-78
2022/01/03 03:18:14;;;;;;;1.85;0.35;;;;;;;8.47;81.74;99861.56;5015811;28;20088;-78
2022/01/03 03:20:40;;;;;;;1.25;0.20;;;;;;;8.46;82.30;99862.47;5015461;28;20029;-78
2022/01/03 03:23:06;;;;;;;1.17;0.55;;;;;;;8.38;82.46;99852.84;5015328;28;20030;-78
2022/01/03 03:25:35;;;;;;;1.48;0.20;;;;;;;8.45;81.85;99857.22;5015915;28;20038;-78
2022/01/03 03:28:10;;;;;;;1.48;0.20;;;;;;;8.45;82.35;99859.84;5015099;28;20767;-78
2022/01/03 03:30:38;;;;;;;1.83;0.30;;;;;;;8.54;82.17;99857.13;5015479;28;20042;-79
2022/01/03 03:33:10;;;;;;;1.15;0.22;;;;;;;8.65;81.56;99854.44;5015690;28;20045;-78
2022/01/03 03:35:39;;;;;;;2.22;0.30;;;;;;;8.64;81.19;99853.53;5014932;28;20044;-79
2022/01/03 03:38:05;;;;;;;2.63;0.30;;;;;;;8.63;81.61;99853.56;5016165;28;20488;-78
2022/01/03 03:40:31;;;;;;;3.13;0.30;;;;;;;8.52;81.90;99856.28;5014418;28;20026;-78
2022/01/03 03:42:56;;;;;;;3.00;0.30;;;;;;;8.48;81.47;99850.16;5015797;28;20034;-78
2022/01/03 03:45:22;;;;;;;2.08;0.20;;;;;;;8.49;81.88;99848.44;5015284;28;20546;-78
2022/01/03 03:47:49;;;;;;;0.45;0.20;;;;;;;8.60;81.96;99858.84;5013437;28;20041;-78
2022/01/03 03:50:15;;;;;;;1.10;0.28;;;;;;;8.63;81.41;99862.31;5021914;28;20042;-78
2022/01/03 03:52:40;;;;;;;2.58;0.30;;;;;;;8.68;80.92;99859.66;5014250;28;20112;-79
2022/01/03 03:55:07;;;;;;;3.00;0.40;;;;;;;8.71;80.66;99860.47;5014457;28;20034;-79
2022/01/03 03:57:33;;;;;;;1.40;0.47;;;;;;;8.71;81.13;99857.00;5022316;28;20033;-79
2022/01/03 03:59:59;;;;;;;0.85;0.20;;;;;;;8.64;81.12;99850.91;5014650;28;20058;-78
2022/01/03 04:02:24;;;;;;;4.15;0.45;;;;;;;8.66;81.26;99858.78;4997396;28;20119;-78
2022/01/03 04:04:50;;;;;;;1.75;0.20;;;;;;;8.67;81.02;99858.78;5013178;28;20048;-78
2022/01/03 04:07:16;;;;;;;3.08;0.45;;;;;;;8.71;80.49;99855.22;5014034;28;20029;-78
2022/01/03 04:09:42;;;;;;;1.85;0.50;;;;;;;8.66;80.91;99857.03;5014177;28;20034;-78
2022/01/03 04:12:07;;;;;;;3.67;0.60;;;;;;;8.88;80.03;99864.69;5013619;28;20138;-78
2022/01/03 04:14:33;;;;;;;1.98;0.50;;;;;;;9.04;79.18;99863.69;5013225;28;20084;-77
2022/01/03 04:16:58;;;;;;;3.00;0.55;;;;;;;9.17;79.01;99875.81;5013708;28;20042;-78
2022/01/03 04:19:24;;;;;;;1.85;0.40;;;;;;;9.18;78.61;99874.91;5014341;28;20053;-78
2022/01/03 04:21:49;;;;;;;3.70;0.65;;;;;;;9.21;78.99;99880.16;5013053;28;20117;-79
2022/01/03 04:24:16;;;;;;;0.40;0.20;;;;;;;9.25;78.58;99882.75;5013785;28;20124;-78
2022/01/03 04:26:43;;;;;;;1.27;0.60;;;;;;;9.23;78.83;99874.00;5014513;28;20061;-78
2022/01/03 04:29:10;;;;;;;1.20;0.40;;;;;;;9.19;79.02;99889.81;5013582;28;20048;-78
2022/01/03 04:31:35;;;;;;;2.83;0.50;;;;;;;9.16;78.85;99879.31;5014000;28;20034;-78
2022/01/03 04:34:00;;;;;;;1.88;0.50;;;;;;;9.15;78.92;99880.22;5013051;28;20661;-79
2022/01/03 04:36:27;;;;;;;2.00;0.50;;;;;;;9.07;79.30;99882.06;5012757;28;20145;-78
2022/01/03 04:38:53;;;;;;;1.45;0.32;;;;;;;9.04;79.57;99891.75;5013054;28;20032;-79
2022/01/03 04:41:19;;;;;;;3.15;0.68;;;;;;;8.97;80.02;99896.22;5025971;28;20022;-78
2022/01/03 04:43:45;;;;;;;6.70;0.75;;;;;;;9.02;79.65;99898.81;5017543;28;20034;-78
2022/01/03 04:46:12;;;;;;;2.83;0.63;;;;;;;9.09;78.98;99903.09;5026613;28;20038;-78
2022/01/03 04:48:38;;;;;;;2.33;0.43;;;;;;;9.14;79.19;99896.03;5019593;28;20030;-79
2022/01/03 04:51:04;;;;;;;3.67;0.60;;;;;;;9.13;79.37;99896.94;5018701;28;20121;-78
2022/01/03 04:53:30;;;;;;;2.85;0.70;;;;;;;9.18;78.82;99914.41;5020899;28;20063;-79
2022/01/03 04:55:56;;;;;;;2.03;0.50;;;;;;;9.28;78.56;99919.59;5019653;28;20496;-79
2022/01/03 04:58:22;;;;;;;2.55;0.70;;;;;;;9.39;77.93;99918.56;5018565;28;20049;-78
2022/01/03 05:00:49;;;;;;;3.95;0.60;;;;;;;9.46;77.60;99914.13;5015964;28;20030;-79
2022/01/03 05:03:15;;;;;;;4.03;0.80;;;;;;;9.44;77.43;99926.44;5018194;28;20049;-79
2022/01/03 05:05:41;;;;;;;4.25;0.90;;;;;;;9.55;77.44;99913.13;5018594;28;20388;-78
2022/01/03 05:08:08;;;;;;;3.40;0.63;;;;;;;9.51;77.39;99922.84;5024692;28;20038;-78
2022/01/03 05:10:34;;;;;;;1.80;0.88;;;;;;;9.45;77.64;99933.44;5017993;28;20387;-78
2022/01/03 05:13:00;;;;;;;3.80;0.60;;;;;;;9.34;78.06;99930.06;4999136;28;20212;-78
2022/01/03 05:15:26;;;;;;;3.88;0.80;;;;;;;9.30;77.70;99925.69;5012385;28;20022;-77
2022/01/03 05:17:51;;;;;;;2.80;0.85;;;;;;;9.22;78.56;99931.03;5011537;28;20061;-77
2022/01/03 05:20:16;;;;;;;4.30;0.55;;;;;;;9.18;78.49;99935.47;5012429;28;20467;-78
2022/01/03 05:22:42;;;;;;;1.63;0.50;;;;;;;9.12;78.90;99938.19;5012159;28;20034;-78
2022/01/03 05:25:10;;;;;;;2.75;0.60;;;;;;;9.10;79.53;99937.31;5013832;28;20029;-78
2022/01/03 05:27:37;;;;;;;3.97;0.70;;;;;;;9.15;79.25;99924.13;5017097;28;20044;-79
2022/01/03 05:30:04;;;;;;;3.92;0.82;;;;;;;9.15;79.25;99940.78;5027175;28;20037;-78
2022/01/03 05:32:30;;;;;;;5.20;0.93;;;;;;;9.12;79.54;99953.09;5018044;28;20026;-78
2022/01/03 05:34:56;;;;;;;2.17;0.60;;;;;;;9.19;78.96;99934.56;5019513;28;20080;-79
2022/01/03 05:37:22;;;;;;;2.47;0.60;;;;;;;9.15;79.40;99948.69;5022252;28;20037;-79
2022/01/03 05:39:47;;;;;;;2.65;0.60;;;;;;;9.15;79.93;99950.44;5022563;28;20030;-79
2022/01/03 05:42:13;;;;;;;3.00;1.00;;;;;;;9.18;79.33;99955.66;5021367;28;20026;-78
2022/01/03 05:44:38;;;;;;;2.78;0.63;;;;;;;9.24;79.24;99947.69;5004272;28;20038;-78
2022/01/03 05:47:04;;;;;;;2.65;0.70;;;;;;;9.32;78.57;99950.25;5020269;28;20061;-79
2022/01/03 05:49:29;;;;;;;3.80;0.70;;;;;;;9.28;79.11;99956.47;5022300;28;20044;-79
2022/01/03 05:51:55;;;;;;;2.08;0.77;;;;;;;9.28;78.64;99932.75;5024653;28;20045;-78
2022/01/03 05:54:20;;;;;;;3.47;0.90;;;;;;;9.40;77.81;99957.19;5025155;28;20108;-79
2022/01/03 05:56:46;;;;;;;5.25;1.13;;;;;;;9.49;76.94;99961.50;5021376;28;20053;-80
2022/01/03 05:59:12;;;;;;;4.25;0.80;;;;;;;9.51;76.97;99953.56;5021994;28;20030;-80
2022/01/03 06:01:39;;;;;;;4.68;0.95;;;;;;;9.64;76.37;99950.78;5021315;28;20026;-80
2022/01/03 06:07:05;;;;;;;2.50;0.60;;;;;;;9.68;75.88;99963.94;5020769;28;20687;-79
2022/01/03 06:09:44;;;;;;;2.38;0.70;;;;;;;9.71;75.93;99977.06;5022814;28;20030;-79
2022/01/03 06:12:11;;;;;;;1.90;0.63;;;;;;;9.69;76.17;99958.63;5031938;28;20132;-80
2022/01/03 06:14:45;;;;;;;3.30;0.90;;;;;;;9.64;76.82;99968.34;5030208;28;20037;-79
2022/01/03 06:17:11;;;;;;;4.78;0.80;;;;;;;9.70;76.40;99977.97;5021456;28;20038;-79
2022/01/03 06:19:38;;;;;;;5.28;0.77;;;;;;;9.63;76.94;99975.38;5022358;28;20061;-80
2022/01/03 06:22:04;;;;;;;3.95;0.88;;;;;;;9.68;76.75;99980.59;5021210;28;20036;-79
2022/01/03 06:24:31;;;;;;;2.00;0.68;;;;;;;9.69;77.45;99971.78;5022415;28;20034;-79
2022/01/03 06:26:57;;;;;;;2.03;0.63;;;;;;;9.68;76.82;99977.09;5023787;28;20057;-79
2022/01/03 06:29:22;;;;;;;3.60;0.68;;;;;;;9.61;77.29;99971.88;5026386;28;20093;-79
2022/01/03 06:31:50;;;;;;;4.72;1.20;;;;;;;9.55;77.33;99981.63;5025584;28;20030;-79
2022/01/03 06:34:16;;;;;;;4.60;1.00;;;;;;;9.58;77.50;99976.31;5033773;28;20045;-79
2022/01/03 06:36:42;;;;;;;2.95;0.85;;;;;;;9.56;77.38;100002.69;5024870;28;20032;-79
2022/01/03 06:39:10;;;;;;;4.60;0.80;;;;;;;9.54;78.05;99986.03;5025159;28;20058;-79
2022/01/03 06:41:36;;;;;;;5.65;1.33;;;;;;;9.49;77.76;99979.94;5003963;28;20058;-79
2022/01/03 06:44:03;;;;;;;2.35;0.90;;;;;;;9.48;77.90;99982.56;5025504;28;20101;-79
2022/01/03 06:46:28;;;;;;;3.78;0.70;;;;;;;9.42;78.38;99981.75;5024345;28;20080;-79
2022/01/03 06:48:54;;;;;;;4.60;1.08;;;;;;;9.38;78.71;99987.09;5026195;28;20452;-79
2022/01/03 06:51:20;;;;;;;5.10;0.90;;;;;;;9.33;78.66;99989.75;5025413;28;20045;-79
2022/01/03 06:53:45;;;;;;;3.72;0.93;;;;;;;9.31;78.71;99988.03;5023953;28;20030;-79
2022/01/03 06:56:12;;;;;;;4.35;1.15;;;;;;;9.24;78.63;100000.38;5025670;28;20033;-80
2022/01/03 06:58:38;;;;;;;2.38;0.90;;;;;;;9.33;77.84;99992.38;5027522;28;20063;-79
2022/01/03 07:01:05;;;;;;;3.67;1.30;;;;;;;9.35;78.52;99985.34;5024602;28;20480;-79
2022/01/03 07:03:30;;;;;;;3.80;0.93;;;;;;;9.41;77.89;99989.69;5008581;28;20029;-79
2022/01/03 07:05:56;;;;;;;4.70;1.10;;;;;;;9.30;78.03;99992.44;5031488;28;20034;-79
2022/01/03 07:08:21;;;;;;;6.78;1.48;;;;;;;9.37;77.76;100019.56;5023879;28;20044;-79
2022/01/03 07:10:48;;;;;;;4.50;1.30;;;;;;;9.44;77.42;100010.72;5023744;28;20042;-79
2022/01/03 07:13:13;;;;;;;4.70;0.93;;;;;;;9.53;76.70;100015.88;5024714;28;20121;-79
2022/01/03 07:21:06;;;;;;;7.82;1.63;;;;;;;9.51;75.98;100028.22;5024164;28;20029;-79
2022/01/03 07:23:33;;;;;;;6.45;1.30;;;;;;;9.58;75.82;100032.50;5025213;28;20051;-79
2022/01/03 07:25:58;;;;;;;5.18;1.10;;;;;;;9.55;75.21;100029.91;5022223;28;20037;-79
2022/01/03 07:28:24;;;;;;;6.35;1.30;;;;;;;9.53;74.61;100025.56;5023406;28;20046;-79
2022/01/03 07:30:49;;;;;;;5.00;1.27;;;;;;;9.54;74.81;100022.91;5022645;28;20040;-79
2022/01/03 07:33:14;;;;;;;6.72;1.73;;;;;;;9.48;74.68;100032.63;5023751;28;20038;-79
2022/01/03 07:35:40;;;;;;;6.78;1.70;;;;;;;9.48;74.90;100030.84;5021936;28;20080;-79
2022/01/03 07:38:05;;;;;;;7.90;2.28;;;;;;;9.57;74.12;100038.69;5020908;28;20514;-79
2022/01/03 07:40:31;;;;;;;7.63;2.00;;;;;;;9.61;73.98;100035.13;5017705;28;20022;-79
2022/01/03 07:42:58;;;;;;;9.07;2.05;;;;;;;9.72;73.72;100037.66;5021230;28;20041;-79
2022/01/03 07:45:24;;;;;;;11.27;1.80;;;;;;;9.74;74.07;100033.22;5021646;28;20084;-79
2022/01/03 07:47:49;;;;;;;9.25;2.10;;;;;;;9.75;73.52;100057.84;5021520;28;20041;-79
2022/01/03 07:50:14;;;;;;;7.80;2.00;;;;;;;9.71;73.70;100066.66;5022108;28;20133;-79
2022/01/03 07:52:41;;;;;;;6.95;1.85;;;;;;;9.71;73.65;100078.06;5019523;28;20113;-79
2022/01/03 07:55:08;;;;;;;10.68;1.75;;;;;;;9.52;75.11;100058.06;5018826;28;20038;-79
2022/01/03 07:57:35;;;;;;;7.15;1.58;;;;;;;9.35;75.03;100058.19;5020777;28;20045;-80
2022/01/03 08:00:03;;;;;;;7.55;2.20;;;;;;;9.28;75.44;100052.13;5018519;28;20092;-79
2022/01/03 08:02:40;;;;;;;9.57;1.90;;;;;;;9.29;75.96;100045.97;5022239;28;20500;-79
2022/01/03 08:05:08;;;;;;;10.70;1.83;;;;;;;9.35;74.74;100042.41;5019461;28;20047;-79
2022/01/03 08:07:34;;;;;;;9.43;2.30;;;;;;;9.42;74.31;100044.09;5018330;28;20037;-79
2022/01/03 08:09:59;;;;;;;7.40;1.40;;;;;;;9.41;74.03;100037.97;5022034;28;20063;-79
2022/01/03 08:12:25;;;;;;;6.32;1.70;;;;;;;9.50;73.43;100037.00;5021005;28;20069;-79
2022/01/03 08:14:50;;;;;;;7.72;1.80;;;;;;;9.53;72.90;100044.84;5021260;28;20048;-79
2022/01/03 08:17:15;;;;;;;10.90;1.77;;;;;;;9.56;72.71;100042.22;5021884;28;20038;-80
2022/01/03 08:19:41;;;;;;;9.07;1.50;;;;;;;9.60;72.70;100038.66;5021646;28;20033;-79
2022/01/03 08:22:06;;;;;;;7.85;1.27;;;;;;;9.60;72.37;100049.19;5028739;28;20073;-79
2022/01/03 08:24:32;;;;;;;8.32;1.45;;;;;;;9.60;72.15;100057.09;5017543;28;20069;-79
2022/01/03 08:26:57;;;;;;;7.93;1.30;;;;;;;9.50;72.68;100062.47;5017680;28;20037;-80
2022/01/03 08:29:22;;;;;;;10.18;1.88;;;;;;;9.43;72.21;100066.91;5016446;28;20033;-80
2022/01/03 08:31:48;;;;;;;7.65;1.80;;;;;;;9.39;72.12;100073.09;5010061;28;20539;-80
2022/01/03 08:34:13;;;;;;;7.70;1.38;;;;;;;9.34;72.77;100074.91;5033290;28;20034;-80
2022/01/03 08:36:39;;;;;;;10.65;1.60;;;;;;;9.50;71.86;100078.28;5021725;28;20049;-80
2022/01/03 08:39:05;;;;;;;5.18;1.50;;;;;;;9.60;71.97;100074.66;5021324;28;20064;-80
2022/01/03 08:41:30;;;;;;;10.75;1.75;;;;;;;9.65;71.34;100068.47;5028501;28;20065;-80
2022/01/03 08:43:55;;;;;;;8.52;1.60;;;;;;;9.65;71.73;100079.00;5020982;28;20045;-80
2022/01/03 08:46:23;;;;;;;7.75;1.55;;;;;;;9.64;71.33;100085.16;5020800;28;20049;-80
2022/01/03 08:48:49;;;;;;;8.18;1.58;;;;;;;9.62;71.05;100086.94;5020486;28;20046;-80
2022/01/03 08:51:14;;;;;;;11.75;2.00;;;;;;;9.63;70.86;100080.78;5020616;28;20037;-80
2022/01/03 08:53:40;;;;;;;11.68;1.80;;;;;;;9.70;70.93;100089.50;5017622;28;20034;-80
2022/01/03 08:56:05;;;;;;;9.50;1.50;;;;;;;9.84;70.26;100095.50;5015403;28;20049;-80
2022/01/03 08:58:30;;;;;;;8.57;1.55;;;;;;;9.94;69.73;100096.28;5019522;28;20037;-80
2022/01/03 09:00:56;;;;;;;9.02;1.58;;;;;;;9.97;69.91;100096.25;5022523;28;20038;-80
2022/01/03 09:03:22;;;;;;;7.40;1.50;;;;;;;9.96;70.44;100102.41;5018936;28;20042;-80
2022/01/03 09:05:49;;;;;;;9.05;1.40;;;;;;;10.05;70.00;100104.94;5019880;28;20133;-80
2022/01/03 09:08:16;;;;;;;10.43;2.15;;;;;;;9.96;70.36;100102.41;5020304;28;20868;-80
2022/01/03 09:10:43;;;;;;;5.72;1.60;;;;;;;10.00;69.54;100112.03;5017789;28;20037;-80
2022/01/03 09:13:08;;;;;;;8.60;1.50;;;;;;;10.03;70.41;100111.13;5019959;28;20041;-80
2022/01/03 09:15:36;;;;;;;8.80;1.67;;;;;;;10.01;71.20;100118.19;5015082;28;20025;-80
2022/01/03 09:18:02;;;;;;;8.55;1.83;;;;;;;9.87;73.24;100115.69;5020398;28;20049;-80
2022/01/03 09:20:27;;;;;;;10.18;2.00;;;;;;;9.68;73.81;100119.38;5019372;28;20033;-80
2022/01/03 09:22:55;;;;;;;12.90;1.90;;;;;;;9.58;74.52;100119.47;5021477;28;20040;-80
2022/01/03 09:30:46;;;;;;;10.80;1.52;;;;;;;9.05;75.96;100131.28;5017113;28;20037;-80
2022/01/03 09:33:12;;;;;;;8.13;1.42;;;;;;;9.02;76.74;100122.53;5027068;28;20049;-80
2022/01/03 09:35:38;;;;;;;11.45;1.85;;;;;;;9.13;75.92;100120.69;5020756;28;20096;-80
2022/01/03 09:38:03;;;;;;;12.32;2.95;;;;;;;9.17;75.83;100131.22;5018870;28;20045;-80
2022/01/03 09:40:29;;;;;;;10.20;2.20;;;;;;;9.24;75.17;100108.31;5020534;28;20030;-80
2022/01/03 09:43:00;;;;;;;6.95;1.80;;;;;;;9.40;73.57;100114.34;5003161;28;20054;-80
2022/01/03 09:45:28;;;;;;;9.05;1.88;;;;;;;9.54;72.69;100116.88;5015923;28;20128;-80
2022/01/03 09:47:55;;;;;;;6.85;1.77;;;;;;;9.75;71.29;100102.66;5011894;28;20410;-80
2022/01/03 09:50:22;;;;;;;11.77;2.33;;;;;;;9.84;71.49;100105.19;5015576;28;20053;-80
2022/01/03 09:52:49;;;;;;;10.50;1.50;;;;;;;10.03;70.42;100111.13;5016942;28;20080;-80
2022/01/03 09:55:19;;;;;;;10.35;1.65;;;;;;;10.15;69.57;100111.00;5017233;28;20045;-80
2022/01/03 09:57:46;;;;;;;6.20;1.75;;;;;;;10.18;69.29;100110.09;5018245;28;20065;-80
2022/01/03 10:00:22;;;;;;;8.57;1.83;;;;;;;10.28;67.85;100107.34;5017086;28;20048;-80
2022/01/03 10:02:49;;;;;;;7.38;1.80;;;;;;;10.33;68.25;100102.03;5020761;28;20054;-80
2022/01/03 10:05:15;;;;;;;10.10;1.70;;;;;;;10.48;68.28;100108.91;5022736;28;20038;-80
2022/01/03 10:07:40;;;;;;;10.25;2.10;;;;;;;10.48;67.40;100119.47;5023274;28;20033;-80
2022/01/03 10:10:08;;;;;;;8.23;2.50;;;;;;;10.50;67.06;100110.59;5025239;28;20056;-80
2022/01/03 10:12:34;;;;;;;7.93;2.22;;;;;;;10.56;66.97;100100.84;5022423;28;20030;-80
2022/01/03 10:15:00;;;;;;;11.43;2.63;;;;;;;10.57;66.49;100102.63;5022676;28;20038;-80
2022/01/03 10:17:25;;;;;;;14.00;2.33;;;;;;;10.48;66.92;100108.91;5022498;28;20106;-80
2022/01/03 10:19:53;;;;;;;7.68;2.30;;;;;;;10.69;65.27;100126.22;5018482;28;20077;-79
2022/01/03 10:22:26;;;;;;;9.38;2.30;;;;;;;10.69;66.20;100102.47;5023275;28;20034;-80
2022/01/03 10:24:53;;;;;;;10.40;2.83;;;;;;;10.63;66.21;100091.97;5023677;28;20036;-80
2022/01/03 10:27:19;;;;;;;14.23;2.53;;;;;;;10.78;66.03;100093.53;5023581;28;20050;-80
2022/01/03 10:29:58;;;;;;;9.38;2.33;;;;;;;10.79;65.18;100088.22;5023904;28;20385;-80
2022/01/03 10:32:29;;;;;;;8.52;2.80;;;;;;;10.89;65.59;100094.25;5019267;28;20030;-80
2022/01/03 10:35:13;;;;;;;7.93;1.90;;;;;;;10.83;65.33;100083.78;5017665;28;20040;-80
2022/01/03 10:37:39;;;;;;;11.57;2.00;;;;;;;10.89;65.13;100089.84;5023368;28;20292;-80
2022/01/03 10:40:27;;;;;;;8.75;2.38;;;;;;;10.95;64.63;100058.09;5022380;28;20022;-80
2022/01/03 10:42:54;;;;;;;7.90;1.58;;;;;;;11.01;65.18;100090.59;5017380;28;20440;-80
2022/01/03 10:45:32;;;;;;;9.35;1.58;;;;;;;11.15;64.76;100096.50;5021840;28;20048;-80
2022/01/03 10:47:58;;;;;;;5.97;1.75;;;;;;;11.10;63.54;100085.16;5022536;28;20034;-80
2022/01/03 10:50:24;;;;;;;9.13;1.63;;;;;;;11.10;63.07;100087.78;5021057;28;20084;-80
2022/01/03 10:52:51;;;;;;;8.48;1.85;;;;;;;11.11;63.44;100078.97;5013492;28;20030;-80
2022/01/03 10:55:33;;;;;;;8.15;1.60;;;;;;;11.14;63.93;100074.50;5023226;28;20106;-80
2022/01/03 10:58:03;;;;;;;9.45;2.10;;;;;;;11.23;63.28;100068.19;5022206;28;20057;-80
2022/01/03 11:00:36;;;;;;;6.05;1.85;;;;;;;11.31;62.58;100070.72;5022027;28;20041;-80
2022/01/03 11:03:29;;;;;;;8.68;1.80;;;;;;;11.23;62.24;100081.41;5016000;28;20492;-80
2022/01/03 11:06:01;;;;;;;10.07;2.13;;;;;;;11.21;62.81;100064.72;5019603;28;20030;-80
2022/01/03 11:11:14;;;;;;;8.45;1.63;;;;;;;11.20;62.24;100070.91;5019975;28;20042;-79
2022/01/03 11:13:47;;;;;;;6.85;1.60;;;;;;;11.22;62.11;100069.13;5020685;28;20400;-79
2022/01/03 11:16:12;;;;;;;9.65;1.75;;;;;;;11.18;62.04;100057.69;5021304;28;20038;-80
2022/01/03 11:18:48;;;;;;;9.13;1.65;;;;;;;11.25;61.73;100057.63;5023023;28;20045;-79
2022/01/03 11:21:21;;;;;;;8.77;1.70;;;;;;;11.34;61.90;100054.81;5027232;28;20370;-79
2022/01/03 11:24:09;;;;;;;8.05;2.05;;;;;;;11.46;61.69;100053.75;5034169;28;20054;-79
2022/01/03 11:26:40;;;;;;;10.48;2.08;;;;;;;11.45;60.62;100047.59;5011843;28;20057;-79
2022/01/03 11:29:06;;;;;;;11.57;1.55;;;;;;;11.52;61.10;100043.91;5023166;28;20097;-79
2022/01/03 11:31:38;;;;;;;6.20;1.77;;;;;;;11.55;59.80;100053.56;5021068;28;20030;-80
2022/01/03 11:34:04;;;;;;;9.27;2.20;;;;;;;11.59;60.09;100040.28;5019660;28;20029;-80
2022/01/03 11:36:29;;;;;;;8.68;1.50;;;;;;;11.68;60.23;100043.66;5020298;28;20033;-80
2022/01/03 11:38:56;;;;;;;7.03;1.75;;;;;;;11.73;59.86;100045.31;5020601;28;20049;-80
2022/01/03 11:41:22;;;;;;;5.88;1.42;;;;;;;11.79;59.78;100034.63;5020321;28;20046;-80
2022/01/03 11:43:49;;;;;;;6.07;1.35;;;;;;;11.78;59.65;100039.94;5026584;28;20037;-79
2022/01/03 11:46:15;;;;;;;8.15;2.10;;;;;;;11.63;58.62;100034.06;5018674;28;20045;-79
2022/01/03 11:48:40;;;;;;;5.05;1.40;;;;;;;11.72;59.04;100040.06;5020260;28;20037;-80
2022/01/03 11:51:09;;;;;;;10.35;1.70;;;;;;;11.76;58.97;100037.34;5021153;28;20150;-80
2022/01/03 11:53:36;;;;;;;9.60;1.35;;;;;;;11.73;58.90;100047.09;5019483;28;20038;-79
2022/01/03 11:56:09;;;;;;;6.68;1.33;;;;;;;11.78;57.95;100038.16;5005618;28;20044;-80